IBS1511 LEMD-GCRR
Flight info
| Callsign | IBS1511 |
|---|---|
| Flight time | N/A |
| Altitude | 37000 |
| Route | CCS DCT ELVAR DCT TAKAV DCT VEDOD UN857 TERTO |
| Aircraft | A320/M-SDE3FGHIRWY/LB1 |
Departure
| Time | 2026-05-06 19:54 |
|---|---|
| Airport | Adolfo Suárez Madrid–Barajas Airport (LEMD) |
Arrival
| Time | N/A |
|---|---|
| Airport | César Manrique-Lanzarote Airport (GCRR) |
| Time | Latitude | Longitude | Altitude | Speed | Heading |
|---|---|---|---|---|---|
| 2026-05-06 19:32 | 40.49005 | -3.58995 | 1966 ft | 0 kts | 269° |
| 2026-05-06 19:40 | 40.49005 | -3.58994 | 1966 ft | 0 kts | 269° |
| 2026-05-06 19:45 | 40.49005 | -3.58982 | 1965 ft | 2 kts | 268° |
| 2026-05-06 19:45 | 40.49005 | -3.58962 | 1965 ft | 2 kts | 270° |
| 2026-05-06 19:45 | 40.49005 | -3.58949 | 1965 ft | 2 kts | 269° |
| 2026-05-06 19:45 | 40.49009 | -3.58930 | 1965 ft | 2 kts | 240° |
| 2026-05-06 19:46 | 40.49018 | -3.58915 | 1965 ft | 2 kts | 217° |
| 2026-05-06 19:46 | 40.49031 | -3.58906 | 1965 ft | 2 kts | 194° |
| 2026-05-06 19:46 | 40.49039 | -3.58904 | 1965 ft | 1 kts | 180° |
| 2026-05-06 19:46 | 40.49046 | -3.58905 | 1965 ft | 0 kts | 178° |
| 2026-05-06 19:49 | 40.48985 | -3.58898 | 1965 ft | 13 kts | 177° |
| 2026-05-06 19:49 | 40.48902 | -3.58899 | 1965 ft | 0 kts | 181° |
| 2026-05-06 19:49 | 40.48869 | -3.58899 | 1965 ft | 10 kts | 179° |
| 2026-05-06 19:49 | 40.48854 | -3.58899 | 1965 ft | 11 kts | 179° |
| 2026-05-06 19:50 | 40.48834 | -3.58899 | 1965 ft | 11 kts | 179° |
| 2026-05-06 19:50 | 40.48761 | -3.58868 | 1965 ft | 11 kts | 117° |
| 2026-05-06 19:50 | 40.48765 | -3.58765 | 1965 ft | 11 kts | 92° |
| 2026-05-06 19:50 | 40.48765 | -3.58658 | 1965 ft | 11 kts | 85° |
| 2026-05-06 19:51 | 40.48765 | -3.58550 | 1965 ft | 12 kts | 91° |
| 2026-05-06 19:51 | 40.48765 | -3.58437 | 1965 ft | 13 kts | 89° |
| 2026-05-06 19:51 | 40.48766 | -3.58309 | 1965 ft | 15 kts | 89° |
| 2026-05-06 19:51 | 40.48766 | -3.58181 | 1965 ft | 17 kts | 90° |
| 2026-05-06 19:52 | 40.48848 | -3.58054 | 1965 ft | 25 kts | 0° |
| 2026-05-06 19:52 | 40.49059 | -3.58055 | 1965 ft | 33 kts | 359° |
| 2026-05-06 19:52 | 40.49247 | -3.57993 | 1965 ft | 25 kts | 79° |
| 2026-05-06 19:52 | 40.49252 | -3.57784 | 1965 ft | 21 kts | 88° |
| 2026-05-06 19:53 | 40.49262 | -3.57587 | 1965 ft | 21 kts | 83° |
| 2026-05-06 19:53 | 40.49347 | -3.57463 | 1965 ft | 18 kts | 8° |
| 2026-05-06 19:53 | 40.49484 | -3.57464 | 1965 ft | 29 kts | 358° |
| 2026-05-06 19:53 | 40.49937 | -3.57466 | 1965 ft | 98 kts | 359° |
| 2026-05-06 19:54 | 40.50816 | -3.57475 | 1966 ft | 154 kts | 359° |
| 2026-05-06 19:54 | 40.52005 | -3.57480 | 2268 ft | 174 kts | 0° |
| 2026-05-06 19:54 | 40.53176 | -3.57464 | 2928 ft | 170 kts | 359° |
| 2026-05-06 19:54 | 40.54351 | -3.57504 | 3493 ft | 173 kts | 0° |
| 2026-05-06 19:55 | 40.55576 | -3.57648 | 3973 ft | 179 kts | 345° |
| 2026-05-06 19:55 | 40.56627 | -3.58482 | 4344 ft | 187 kts | 305° |
| 2026-05-06 19:55 | 40.57098 | -3.60131 | 4634 ft | 200 kts | 284° |
| 2026-05-06 19:55 | 40.57687 | -3.61854 | 4837 ft | 219 kts | 313° |
| 2026-05-06 19:56 | 40.58894 | -3.63154 | 5178 ft | 234 kts | 322° |
| 2026-05-06 19:56 | 40.59993 | -3.64799 | 5562 ft | 249 kts | 295° |
| 2026-05-06 19:56 | 40.60369 | -3.67070 | 5901 ft | 266 kts | 265° |
| 2026-05-06 19:56 | 40.60002 | -3.69512 | 6326 ft | 279 kts | 255° |
| 2026-05-06 19:57 | 40.59593 | -3.72017 | 6972 ft | 285 kts | 260° |
| 2026-05-06 19:57 | 40.59140 | -3.74545 | 7712 ft | 286 kts | 246° |
| 2026-05-06 19:57 | 40.58273 | -3.76863 | 8486 ft | 286 kts | 240° |
| 2026-05-06 19:57 | 40.57302 | -3.79149 | 9261 ft | 287 kts | 239° |
| 2026-05-06 19:58 | 40.56345 | -3.81436 | 10034 ft | 288 kts | 240° |
| 2026-05-06 19:58 | 40.55400 | -3.83759 | 10669 ft | 295 kts | 240° |
| 2026-05-06 19:58 | 40.54438 | -3.86184 | 11008 ft | 312 kts | 241° |
| 2026-05-06 19:58 | 40.53435 | -3.88757 | 11529 ft | 320 kts | 242° |
| 2026-05-06 19:59 | 40.52420 | -3.91391 | 12234 ft | 323 kts | 242° |
| 2026-05-06 19:59 | 40.51423 | -3.93989 | 12928 ft | 325 kts | 242° |
| 2026-05-06 19:59 | 40.50404 | -3.96653 | 13588 ft | 328 kts | 242° |
| 2026-05-06 19:59 | 40.49388 | -3.99311 | 14223 ft | 330 kts | 242° |
| 2026-05-06 20:00 | 40.48349 | -4.02030 | 14869 ft | 333 kts | 243° |
| 2026-05-06 20:00 | 40.47323 | -4.04716 | 15488 ft | 335 kts | 243° |
| 2026-05-06 20:00 | 40.46274 | -4.07462 | 16104 ft | 337 kts | 243° |
| 2026-05-06 20:00 | 40.45216 | -4.10227 | 16690 ft | 340 kts | 243° |
| 2026-05-06 20:01 | 40.44166 | -4.12972 | 17258 ft | 342 kts | 243° |
| 2026-05-06 20:01 | 40.43097 | -4.15764 | 17836 ft | 344 kts | 243° |
| 2026-05-06 20:01 | 40.42014 | -4.18587 | 18400 ft | 346 kts | 243° |
| 2026-05-06 20:01 | 40.40934 | -4.21402 | 18949 ft | 348 kts | 243° |
| 2026-05-06 20:02 | 40.39852 | -4.24220 | 19472 ft | 350 kts | 243° |
| 2026-05-06 20:02 | 40.38754 | -4.27078 | 19984 ft | 352 kts | 243° |
| 2026-05-06 20:02 | 40.37652 | -4.29942 | 20489 ft | 354 kts | 243° |
| 2026-05-06 20:02 | 40.36547 | -4.32811 | 20986 ft | 356 kts | 243° |
| 2026-05-06 20:03 | 40.35437 | -4.35690 | 21483 ft | 358 kts | 243° |
| 2026-05-06 20:03 | 40.34303 | -4.38629 | 21970 ft | 360 kts | 243° |
| 2026-05-06 20:03 | 40.33172 | -4.41557 | 22439 ft | 362 kts | 243° |
| 2026-05-06 20:03 | 40.32045 | -4.44472 | 22907 ft | 364 kts | 243° |
| 2026-05-06 20:04 | 40.30886 | -4.47465 | 23356 ft | 366 kts | 243° |
| 2026-05-06 20:04 | 40.29740 | -4.50425 | 23786 ft | 369 kts | 243° |
| 2026-05-06 20:04 | 40.28581 | -4.53414 | 24202 ft | 371 kts | 243° |
| 2026-05-06 20:04 | 40.27405 | -4.56443 | 24618 ft | 373 kts | 243° |
| 2026-05-06 20:05 | 40.26230 | -4.59464 | 25023 ft | 375 kts | 243° |
| 2026-05-06 20:05 | 40.25046 | -4.62507 | 25258 ft | 382 kts | 243° |
| 2026-05-06 20:05 | 40.23830 | -4.65629 | 25491 ft | 387 kts | 243° |
| 2026-05-06 20:05 | 40.22615 | -4.68744 | 25844 ft | 389 kts | 243° |
| 2026-05-06 20:06 | 40.21373 | -4.71927 | 26216 ft | 391 kts | 243° |
| 2026-05-06 20:06 | 40.20141 | -4.75081 | 26564 ft | 393 kts | 243° |
| 2026-05-06 20:06 | 40.18898 | -4.78259 | 26912 ft | 394 kts | 243° |
| 2026-05-06 20:06 | 40.17651 | -4.81445 | 27249 ft | 396 kts | 243° |
| 2026-05-06 20:07 | 40.16391 | -4.84661 | 27570 ft | 398 kts | 243° |
| 2026-05-06 20:07 | 40.15132 | -4.87868 | 27875 ft | 399 kts | 243° |
| 2026-05-06 20:07 | 40.13878 | -4.91061 | 28190 ft | 401 kts | 243° |
| 2026-05-06 20:07 | 40.12597 | -4.94318 | 28495 ft | 402 kts | 243° |
| 2026-05-06 20:08 | 40.11322 | -4.97557 | 28773 ft | 404 kts | 243° |
| 2026-05-06 20:08 | 40.10030 | -5.00835 | 29040 ft | 406 kts | 243° |
| 2026-05-06 20:08 | 40.08752 | -5.04077 | 29303 ft | 408 kts | 243° |
| 2026-05-06 20:08 | 40.07445 | -5.07387 | 29568 ft | 409 kts | 242° |
| 2026-05-06 20:09 | 40.06142 | -5.10682 | 29820 ft | 411 kts | 243° |
| 2026-05-06 20:09 | 40.04837 | -5.13976 | 30069 ft | 412 kts | 243° |
| 2026-05-06 20:09 | 40.03514 | -5.17317 | 30313 ft | 413 kts | 242° |
| 2026-05-06 20:09 | 40.02208 | -5.20608 | 30550 ft | 414 kts | 243° |
| 2026-05-06 20:10 | 40.00878 | -5.23959 | 30777 ft | 416 kts | 243° |
| 2026-05-06 20:10 | 39.99553 | -5.27289 | 30975 ft | 417 kts | 243° |
| 2026-05-06 20:10 | 39.98225 | -5.30626 | 31170 ft | 418 kts | 243° |
| 2026-05-06 20:10 | 39.96877 | -5.34008 | 31391 ft | 418 kts | 243° |
| 2026-05-06 20:11 | 39.95545 | -5.37347 | 31633 ft | 418 kts | 243° |
| 2026-05-06 20:11 | 39.94202 | -5.40713 | 31919 ft | 416 kts | 243° |
| 2026-05-06 20:11 | 39.92884 | -5.44008 | 32194 ft | 415 kts | 243° |
| 2026-05-06 20:11 | 39.91545 | -5.47354 | 32457 ft | 414 kts | 243° |
| 2026-05-06 20:12 | 39.90223 | -5.50653 | 32687 ft | 413 kts | 243° |
| 2026-05-06 20:12 | 39.88910 | -5.53927 | 32922 ft | 412 kts | 243° |
| 2026-05-06 20:12 | 39.87591 | -5.57213 | 33150 ft | 411 kts | 243° |
| 2026-05-06 20:12 | 39.86271 | -5.60498 | 33380 ft | 411 kts | 243° |
| 2026-05-06 20:13 | 39.84940 | -5.63806 | 33610 ft | 410 kts | 243° |
| 2026-05-06 20:13 | 39.83619 | -5.67085 | 33833 ft | 409 kts | 242° |
| 2026-05-06 20:13 | 39.82304 | -5.70344 | 34067 ft | 408 kts | 242° |
| 2026-05-06 20:13 | 39.80997 | -5.73582 | 34293 ft | 407 kts | 242° |
| 2026-05-06 20:14 | 39.79693 | -5.76811 | 34489 ft | 406 kts | 242° |
| 2026-05-06 20:14 | 39.78376 | -5.80066 | 34662 ft | 406 kts | 242° |
| 2026-05-06 20:14 | 39.77071 | -5.83292 | 34828 ft | 405 kts | 242° |
| 2026-05-06 20:14 | 39.75769 | -5.86502 | 34981 ft | 405 kts | 242° |
| 2026-05-06 20:15 | 39.74462 | -5.89724 | 35121 ft | 405 kts | 242° |
| 2026-05-06 20:15 | 39.73134 | -5.92993 | 35237 ft | 406 kts | 242° |
| 2026-05-06 20:15 | 39.71818 | -5.96229 | 35357 ft | 407 kts | 242° |
| 2026-05-06 20:15 | 39.70504 | -5.99455 | 35459 ft | 407 kts | 242° |
| 2026-05-06 20:16 | 39.69190 | -6.02679 | 35569 ft | 408 kts | 242° |
| 2026-05-06 20:16 | 39.67852 | -6.05956 | 35670 ft | 409 kts | 242° |
| 2026-05-06 20:16 | 39.65212 | -6.12417 | 35859 ft | 410 kts | 242° |
| 2026-05-06 20:17 | 39.62523 | -6.18982 | 36013 ft | 411 kts | 242° |
| 2026-05-06 20:17 | 39.59846 | -6.25504 | 36176 ft | 412 kts | 242° |
| 2026-05-06 20:18 | 39.57165 | -6.32027 | 36328 ft | 414 kts | 242° |
| 2026-05-06 20:18 | 39.54445 | -6.38628 | 36470 ft | 415 kts | 242° |
| 2026-05-06 20:19 | 39.51761 | -6.45177 | 36630 ft | 416 kts | 243° |
| 2026-05-06 20:19 | 39.49189 | -6.51909 | 36765 ft | 417 kts | 244° |
| 2026-05-06 20:20 | 39.46635 | -6.58617 | 36881 ft | 418 kts | 244° |
| 2026-05-06 20:20 | 39.44065 | -6.65328 | 36883 ft | 419 kts | 243° |
| 2026-05-06 20:21 | 39.41477 | -6.72054 | 36885 ft | 419 kts | 243° |
| 2026-05-06 20:21 | 39.38890 | -6.78763 | 36882 ft | 420 kts | 243° |
| 2026-05-06 20:22 | 39.36274 | -6.85528 | 36884 ft | 419 kts | 243° |
| 2026-05-06 20:22 | 39.33676 | -6.92230 | 36885 ft | 419 kts | 243° |
| 2026-05-06 20:23 | 39.31076 | -6.98926 | 36886 ft | 419 kts | 243° |
| 2026-05-06 20:23 | 39.28468 | -7.05624 | 36882 ft | 420 kts | 243° |
| 2026-05-06 20:24 | 39.25822 | -7.12339 | 36885 ft | 420 kts | 240° |
| 2026-05-06 20:24 | 39.22520 | -7.18495 | 36902 ft | 421 kts | 229° |
| 2026-05-06 20:25 | 39.18077 | -7.23403 | 36890 ft | 424 kts | 214° |
| 2026-05-06 20:25 | 39.12937 | -7.27116 | 36891 ft | 425 kts | 211° |
| 2026-05-06 20:26 | 39.07739 | -7.30726 | 36881 ft | 425 kts | 210° |
| 2026-05-06 20:26 | 39.02544 | -7.34333 | 36880 ft | 425 kts | 211° |
| 2026-05-06 20:27 | 38.97353 | -7.37935 | 36880 ft | 425 kts | 211° |
| 2026-05-06 20:27 | 38.92162 | -7.41533 | 36883 ft | 425 kts | 211° |
| 2026-05-06 20:28 | 38.86948 | -7.45143 | 36881 ft | 425 kts | 211° |
| 2026-05-06 20:28 | 38.81772 | -7.48721 | 36891 ft | 425 kts | 211° |
| 2026-05-06 20:29 | 38.76590 | -7.52297 | 36890 ft | 425 kts | 211° |
| 2026-05-06 20:29 | 38.71399 | -7.55874 | 36901 ft | 425 kts | 211° |
| 2026-05-06 20:30 | 38.63588 | -7.61244 | 36898 ft | 425 kts | 210° |
| 2026-05-06 20:31 | 38.58373 | -7.64822 | 36900 ft | 425 kts | 210° |
| 2026-05-06 20:31 | 38.53175 | -7.68381 | 36906 ft | 425 kts | 210° |
| 2026-05-06 20:32 | 38.47972 | -7.71939 | 36914 ft | 426 kts | 210° |
| 2026-05-06 20:32 | 38.42748 | -7.75505 | 36903 ft | 425 kts | 210° |
| 2026-05-06 20:33 | 38.37534 | -7.79059 | 36912 ft | 425 kts | 210° |
| 2026-05-06 20:33 | 38.32341 | -7.82591 | 36910 ft | 425 kts | 210° |
| 2026-05-06 20:34 | 38.27121 | -7.86136 | 36914 ft | 424 kts | 210° |
| 2026-05-06 20:34 | 38.21945 | -7.89649 | 36919 ft | 425 kts | 210° |
| 2026-05-06 20:35 | 38.16711 | -7.93193 | 36916 ft | 424 kts | 210° |
| 2026-05-06 20:35 | 38.11508 | -7.96710 | 36918 ft | 425 kts | 210° |
| 2026-05-06 20:36 | 38.06310 | -8.00218 | 36917 ft | 426 kts | 210° |
| 2026-05-06 20:36 | 38.01064 | -8.03752 | 36924 ft | 426 kts | 210° |
| 2026-05-06 20:37 | 37.95844 | -8.07262 | 36917 ft | 426 kts | 210° |
| 2026-05-06 20:37 | 37.90642 | -8.10755 | 36911 ft | 425 kts | 210° |
| 2026-05-06 20:38 | 37.85408 | -8.14264 | 36916 ft | 425 kts | 210° |
| 2026-05-06 20:38 | 37.80200 | -8.17752 | 36917 ft | 425 kts | 210° |
| 2026-05-06 20:39 | 37.74962 | -8.21253 | 36918 ft | 426 kts | 210° |
| 2026-05-06 20:39 | 37.69741 | -8.24738 | 36916 ft | 426 kts | 210° |
| 2026-05-06 20:40 | 37.64480 | -8.28241 | 36921 ft | 426 kts | 210° |
| 2026-05-06 20:40 | 37.59249 | -8.31721 | 36921 ft | 426 kts | 211° |
| 2026-05-06 20:41 | 37.54033 | -8.35185 | 36926 ft | 426 kts | 210° |
| 2026-05-06 20:41 | 37.48783 | -8.38665 | 36923 ft | 426 kts | 211° |
| 2026-05-06 20:42 | 37.43527 | -8.42145 | 36930 ft | 426 kts | 211° |
| 2026-05-06 20:42 | 37.38286 | -8.45608 | 36937 ft | 426 kts | 211° |
| 2026-05-06 20:43 | 37.33035 | -8.49074 | 36936 ft | 426 kts | 211° |
| 2026-05-06 20:43 | 37.27807 | -8.52519 | 36938 ft | 427 kts | 211° |
| 2026-05-06 20:44 | 37.22536 | -8.55984 | 36942 ft | 427 kts | 211° |
| 2026-05-06 20:44 | 37.17299 | -8.59425 | 36938 ft | 428 kts | 211° |
| 2026-05-06 20:45 | 37.12017 | -8.62888 | 36940 ft | 428 kts | 211° |
| 2026-05-06 20:45 | 37.06766 | -8.66326 | 36941 ft | 428 kts | 210° |
| 2026-05-06 20:46 | 37.01485 | -8.69777 | 36944 ft | 428 kts | 210° |
| 2026-05-06 20:46 | 36.96217 | -8.73213 | 36945 ft | 428 kts | 210° |
| 2026-05-06 20:47 | 36.90928 | -8.76658 | 36947 ft | 427 kts | 210° |
| 2026-05-06 20:47 | 36.85671 | -8.80081 | 36948 ft | 428 kts | 210° |
| 2026-05-06 20:48 | 36.80369 | -8.83524 | 36949 ft | 428 kts | 211° |
| 2026-05-06 20:48 | 36.75113 | -8.86933 | 36951 ft | 428 kts | 211° |
| 2026-05-06 20:49 | 36.69805 | -8.90371 | 36954 ft | 429 kts | 210° |
| 2026-05-06 20:49 | 36.64521 | -8.93789 | 36953 ft | 429 kts | 210° |
| 2026-05-06 20:50 | 36.59213 | -8.97215 | 36956 ft | 429 kts | 210° |
| 2026-05-06 20:50 | 36.53950 | -9.00606 | 36958 ft | 429 kts | 210° |
| 2026-05-06 20:51 | 36.48629 | -9.04029 | 36959 ft | 429 kts | 211° |
| 2026-05-06 20:51 | 36.43364 | -9.07411 | 36959 ft | 430 kts | 211° |
| 2026-05-06 20:52 | 36.38042 | -9.10825 | 36957 ft | 429 kts | 211° |
| 2026-05-06 20:52 | 36.32740 | -9.14222 | 36959 ft | 430 kts | 211° |
| 2026-05-06 20:53 | 36.27419 | -9.17626 | 36961 ft | 431 kts | 211° |
| 2026-05-06 20:53 | 36.22097 | -9.21024 | 36960 ft | 431 kts | 211° |
| 2026-05-06 20:54 | 36.16790 | -9.24408 | 36958 ft | 431 kts | 211° |
| 2026-05-06 20:54 | 36.11457 | -9.27804 | 36961 ft | 431 kts | 211° |
| 2026-05-06 20:55 | 36.06135 | -9.31186 | 36969 ft | 431 kts | 211° |
| 2026-05-06 20:55 | 36.00818 | -9.34560 | 36977 ft | 432 kts | 211° |
| 2026-05-06 20:56 | 35.95447 | -9.37943 | 36978 ft | 433 kts | 210° |
| 2026-05-06 20:56 | 35.90024 | -9.41142 | 36978 ft | 434 kts | 209° |
| 2026-05-06 20:57 | 35.84581 | -9.44321 | 36980 ft | 434 kts | 210° |
| 2026-05-06 20:57 | 35.79135 | -9.47513 | 36977 ft | 434 kts | 209° |
| 2026-05-06 20:58 | 35.73668 | -9.50716 | 36979 ft | 434 kts | 210° |
| 2026-05-06 20:58 | 35.68225 | -9.53904 | 36982 ft | 435 kts | 209° |
| 2026-05-06 20:59 | 35.62799 | -9.57078 | 36980 ft | 435 kts | 209° |
| 2026-05-06 20:59 | 35.57319 | -9.60277 | 36969 ft | 436 kts | 210° |
| 2026-05-06 21:00 | 35.51851 | -9.63464 | 36981 ft | 437 kts | 210° |
| 2026-05-06 21:00 | 35.46350 | -9.66666 | 36987 ft | 437 kts | 209° |
| 2026-05-06 21:01 | 35.40853 | -9.69862 | 36981 ft | 438 kts | 209° |
| 2026-05-06 21:01 | 35.35370 | -9.73043 | 36986 ft | 439 kts | 209° |
| 2026-05-06 21:02 | 35.29841 | -9.76250 | 36986 ft | 439 kts | 209° |
| 2026-05-06 21:02 | 35.24356 | -9.79424 | 36992 ft | 439 kts | 209° |
| 2026-05-06 21:03 | 35.18830 | -9.82618 | 36989 ft | 438 kts | 209° |
| 2026-05-06 21:03 | 35.13324 | -9.85793 | 36986 ft | 439 kts | 209° |
| 2026-05-06 21:04 | 35.07791 | -9.88979 | 36985 ft | 439 kts | 209° |
| 2026-05-06 21:04 | 35.02276 | -9.92151 | 36991 ft | 439 kts | 209° |
| 2026-05-06 21:05 | 34.96753 | -9.95324 | 36993 ft | 440 kts | 209° |
| 2026-05-06 21:05 | 34.91217 | -9.98498 | 36994 ft | 440 kts | 209° |
| 2026-05-06 21:06 | 34.85684 | -10.01667 | 36992 ft | 440 kts | 209° |
| 2026-05-06 21:06 | 34.80155 | -10.04828 | 36998 ft | 441 kts | 209° |
| 2026-05-06 21:07 | 34.74629 | -10.07983 | 37001 ft | 441 kts | 209° |
| 2026-05-06 21:07 | 34.69097 | -10.11137 | 37011 ft | 441 kts | 209° |
| 2026-05-06 21:08 | 34.63517 | -10.14314 | 37001 ft | 441 kts | 209° |
| 2026-05-06 21:08 | 34.57971 | -10.17464 | 36998 ft | 442 kts | 209° |
| 2026-05-06 21:09 | 34.52403 | -10.20624 | 36996 ft | 442 kts | 209° |
| 2026-05-06 21:09 | 34.46806 | -10.23796 | 36999 ft | 443 kts | 209° |
| 2026-05-06 21:10 | 34.41264 | -10.26931 | 37001 ft | 443 kts | 209° |
| 2026-05-06 21:10 | 34.35660 | -10.30099 | 36993 ft | 443 kts | 209° |
| 2026-05-06 21:11 | 34.30090 | -10.33241 | 37000 ft | 442 kts | 209° |
| 2026-05-06 21:11 | 34.24549 | -10.36363 | 37007 ft | 442 kts | 209° |
| 2026-05-06 21:12 | 34.18941 | -10.39518 | 36999 ft | 444 kts | 209° |
| 2026-05-06 21:12 | 34.13336 | -10.42668 | 37000 ft | 444 kts | 209° |
| 2026-05-06 21:13 | 34.07741 | -10.45804 | 37009 ft | 445 kts | 210° |
| 2026-05-06 21:13 | 34.02124 | -10.48950 | 37006 ft | 444 kts | 209° |
| 2026-05-06 21:14 | 33.96529 | -10.52079 | 37002 ft | 445 kts | 210° |
| 2026-05-06 21:14 | 33.90921 | -10.55211 | 37002 ft | 444 kts | 209° |
| 2026-05-06 21:15 | 33.85302 | -10.58343 | 37004 ft | 444 kts | 210° |
| 2026-05-06 21:15 | 33.79707 | -10.61459 | 37004 ft | 445 kts | 209° |
| 2026-05-06 21:16 | 33.74099 | -10.64576 | 37005 ft | 446 kts | 210° |
| 2026-05-06 21:16 | 33.68454 | -10.67713 | 37005 ft | 446 kts | 209° |
| 2026-05-06 21:17 | 33.62850 | -10.70819 | 37002 ft | 446 kts | 209° |
| 2026-05-06 21:17 | 33.57188 | -10.73952 | 37004 ft | 446 kts | 209° |
| 2026-05-06 21:18 | 33.51580 | -10.77052 | 37006 ft | 446 kts | 209° |
| 2026-05-06 21:18 | 33.45948 | -10.80160 | 37009 ft | 447 kts | 209° |
| 2026-05-06 21:19 | 33.40280 | -10.83284 | 37001 ft | 447 kts | 209° |
| 2026-05-06 21:19 | 33.34660 | -10.86379 | 37011 ft | 447 kts | 209° |
| 2026-05-06 21:20 | 33.29029 | -10.89474 | 37005 ft | 447 kts | 209° |
| 2026-05-06 21:20 | 33.23375 | -10.92576 | 37008 ft | 447 kts | 209° |
| 2026-05-06 21:21 | 33.17704 | -10.95684 | 37010 ft | 447 kts | 209° |
| 2026-05-06 21:21 | 33.12058 | -10.98775 | 37006 ft | 449 kts | 209° |
| 2026-05-06 21:22 | 33.06388 | -11.01873 | 37017 ft | 449 kts | 209° |
| 2026-05-06 21:22 | 33.00708 | -11.04972 | 37021 ft | 449 kts | 209° |
| 2026-05-06 21:23 | 32.95052 | -11.08104 | 37022 ft | 448 kts | 211° |
| 2026-05-06 21:23 | 32.89497 | -11.11415 | 37035 ft | 447 kts | 211° |
| 2026-05-06 21:24 | 32.83955 | -11.14729 | 37030 ft | 448 kts | 211° |
| 2026-05-06 21:24 | 32.78373 | -11.18048 | 37035 ft | 448 kts | 211° |
| 2026-05-06 21:25 | 32.72823 | -11.21338 | 37008 ft | 449 kts | 211° |